sensor_id;sensor_type;location;lat;lon;timestamp;pressure;altitude;pressure_sealevel;temperature;humidity
52249;BME280;38541;48.130;8.378;2023-05-19T00:00:56;93089.22;;;10.61;63.26
52249;BME280;38541;48.130;8.378;2023-05-19T00:03:23;93086.03;;;10.59;63.93
52249;BME280;38541;48.130;8.378;2023-05-19T00:05:52;93083.06;;;10.50;64.61
52249;BME280;38541;48.130;8.378;2023-05-19T00:08:19;93079.41;;;10.51;64.48
52249;BME280;38541;48.130;8.378;2023-05-19T00:10:48;93085.38;;;10.41;64.51
52249;BME280;38541;48.130;8.378;2023-05-19T00:13:14;93076.16;;;10.39;64.28
52249;BME280;38541;48.130;8.378;2023-05-19T00:15:41;93075.34;;;10.38;64.03
52249;BME280;38541;48.130;8.378;2023-05-19T00:18:07;93074.31;;;10.39;64.10
52249;BME280;38541;48.130;8.378;2023-05-19T00:20:35;93075.84;;;10.35;63.73
52249;BME280;38541;48.130;8.378;2023-05-19T00:23:03;93076.41;;;10.37;63.34
52249;BME280;38541;48.130;8.378;2023-05-19T00:25:29;93079.03;;;10.37;63.61
52249;BME280;38541;48.130;8.378;2023-05-19T00:27:56;93071.41;;;10.36;64.82
52249;BME280;38541;48.130;8.378;2023-05-19T00:30:24;93071.94;;;10.38;64.65
52249;BME280;38541;48.130;8.378;2023-05-19T00:32:51;93075.56;;;10.32;64.43
52249;BME280;38541;48.130;8.378;2023-05-19T00:35:18;93076.06;;;10.28;64.22
52249;BME280;38541;48.130;8.378;2023-05-19T00:37:45;93071.31;;;10.25;64.09
52249;BME280;38541;48.130;8.378;2023-05-19T00:40:12;93071.59;;;10.24;64.30
52249;BME280;38541;48.130;8.378;2023-05-19T00:42:39;93070.03;;;10.28;64.18
52249;BME280;38541;48.130;8.378;2023-05-19T00:45:07;93070.31;;;10.32;63.90
52249;BME280;38541;48.130;8.378;2023-05-19T00:47:34;93069.53;;;10.31;63.87
52249;BME280;38541;48.130;8.378;2023-05-19T00:50:00;93062.19;;;10.33;64.03
52249;BME280;38541;48.130;8.378;2023-05-19T00:52:27;93067.97;;;10.35;64.40
52249;BME280;38541;48.130;8.378;2023-05-19T00:54:54;93060.59;;;10.32;63.99
52249;BME280;38541;48.130;8.378;2023-05-19T00:57:21;93060.91;;;10.36;64.66
52249;BME280;38541;48.130;8.378;2023-05-19T00:59:47;93055.13;;;10.34;64.18
52249;BME280;38541;48.130;8.378;2023-05-19T01:02:14;93057.97;;;10.32;64.16
52249;BME280;38541;48.130;8.378;2023-05-19T01:04:42;93056.69;;;10.35;63.75
52249;BME280;38541;48.130;8.378;2023-05-19T01:07:10;93056.66;;;10.30;63.98
52249;BME280;38541;48.130;8.378;2023-05-19T01:09:38;93050.63;;;10.29;64.15
52249;BME280;38541;48.130;8.378;2023-05-19T01:12:07;93057.16;;;10.26;64.74
52249;BME280;38541;48.130;8.378;2023-05-19T01:14:34;93062.41;;;10.26;64.74
52249;BME280;38541;48.130;8.378;2023-05-19T01:20:07;93052.41;;;10.23;64.71
52249;BME280;38541;48.130;8.378;2023-05-19T01:28:30;93051.88;;;10.21;64.01
52249;BME280;38541;48.130;8.378;2023-05-19T01:31:05;93052.38;;;10.18;64.07
52249;BME280;38541;48.130;8.378;2023-05-19T01:33:33;93051.84;;;10.16;64.21
52249;BME280;38541;48.130;8.378;2023-05-19T01:36:02;93044.19;;;10.14;64.56
52249;BME280;38541;48.130;8.378;2023-05-19T01:38:29;93047.63;;;10.15;64.91
52249;BME280;38541;48.130;8.378;2023-05-19T01:40:59;93045.00;;;10.15;65.31
52249;BME280;38541;48.130;8.378;2023-05-19T01:43:29;93048.91;;;10.12;64.54
52249;BME280;38541;48.130;8.378;2023-05-19T01:45:56;93041.81;;;10.13;64.34
52249;BME280;38541;48.130;8.378;2023-05-19T01:48:25;93042.09;;;10.11;64.00
52249;BME280;38541;48.130;8.378;2023-05-19T01:50:52;93037.59;;;10.07;64.46
52249;BME280;38541;48.130;8.378;2023-05-19T01:53:18;93040.13;;;9.96;63.77
52249;BME280;38541;48.130;8.378;2023-05-19T01:55:48;93031.13;;;9.87;64.10
52249;BME280;38541;48.130;8.378;2023-05-19T01:58:37;93040.06;;;9.91;63.74
52249;BME280;38541;48.130;8.378;2023-05-19T02:03:41;93030.09;;;9.88;65.13
52249;BME280;38541;48.130;8.378;2023-05-19T02:06:29;93029.53;;;9.86;64.75
52249;BME280;38541;48.130;8.378;2023-05-19T02:09:14;93030.78;;;9.78;64.71
52249;BME280;38541;48.130;8.378;2023-05-19T02:11:56;93026.88;;;9.81;65.00
52249;BME280;38541;48.130;8.378;2023-05-19T02:14:33;93030.28;;;9.81;65.31
52249;BME280;38541;48.130;8.378;2023-05-19T02:17:03;93024.25;;;9.81;64.75
52249;BME280;38541;48.130;8.378;2023-05-19T02:19:32;93032.84;;;9.71;64.38
52249;BME280;38541;48.130;8.378;2023-05-19T02:21:59;93031.97;;;9.60;64.88
52249;BME280;38541;48.130;8.378;2023-05-19T02:24:25;93039.81;;;9.60;65.18
52249;BME280;38541;48.130;8.378;2023-05-19T02:26:52;93033.22;;;9.57;65.62
52249;BME280;38541;48.130;8.378;2023-05-19T02:29:19;93030.84;;;9.56;65.63
52249;BME280;38541;48.130;8.378;2023-05-19T02:31:46;93027.97;;;9.57;65.38
52249;BME280;38541;48.130;8.378;2023-05-19T02:34:13;93031.88;;;9.55;65.32
52249;BME280;38541;48.130;8.378;2023-05-19T02:36:41;93033.69;;;9.49;65.60
52249;BME280;38541;48.130;8.378;2023-05-19T02:39:09;93032.34;;;9.47;65.66
52249;BME280;38541;48.130;8.378;2023-05-19T02:41:36;93033.88;;;9.42;65.96
52249;BME280;38541;48.130;8.378;2023-05-19T02:44:04;93032.53;;;9.40;66.26
52249;BME280;38541;48.130;8.378;2023-05-19T02:46:31;93030.41;;;9.37;66.14
52249;BME280;38541;48.130;8.378;2023-05-19T02:48:58;93032.19;;;9.31;66.93
52249;BME280;38541;48.130;8.378;2023-05-19T02:51:24;93030.59;;;9.30;66.73
52249;BME280;38541;48.130;8.378;2023-05-19T02:53:51;93031.59;;;9.24;67.53
52249;BME280;38541;48.130;8.378;2023-05-19T02:56:17;93037.34;;;9.21;67.20
52249;BME280;38541;48.130;8.378;2023-05-19T02:58:44;93033.59;;;9.17;67.33
52249;BME280;38541;48.130;8.378;2023-05-19T03:01:11;93027.31;;;9.18;67.33
52249;BME280;38541;48.130;8.378;2023-05-19T03:03:38;93030.50;;;9.20;67.58
52249;BME280;38541;48.130;8.378;2023-05-19T03:06:05;93028.44;;;9.22;67.37
52249;BME280;38541;48.130;8.378;2023-05-19T03:08:35;93023.66;;;9.19;67.46
52249;BME280;38541;48.130;8.378;2023-05-19T03:11:02;93028.63;;;9.15;67.27
52249;BME280;38541;48.130;8.378;2023-05-19T03:13:28;93023.38;;;9.15;67.67
52249;BME280;38541;48.130;8.378;2023-05-19T03:15:55;93023.13;;;9.17;67.85
52249;BME280;38541;48.130;8.378;2023-05-19T03:18:26;93025.72;;;9.17;68.18
52249;BME280;38541;48.130;8.378;2023-05-19T03:20:53;93023.13;;;9.17;68.17
52249;BME280;38541;48.130;8.378;2023-05-19T03:23:21;93022.66;;;9.20;67.82
52249;BME280;38541;48.130;8.378;2023-05-19T03:25:47;93014.78;;;9.20;67.68
52249;BME280;38541;48.130;8.378;2023-05-19T03:28:14;93026.84;;;9.21;67.49
52249;BME280;38541;48.130;8.378;2023-05-19T03:30:40;93016.38;;;9.21;67.54
52249;BME280;38541;48.130;8.378;2023-05-19T03:33:11;93025.53;;;9.23;67.27
52249;BME280;38541;48.130;8.378;2023-05-19T03:35:39;93017.94;;;9.22;67.43
52249;BME280;38541;48.130;8.378;2023-05-19T03:38:06;93025.28;;;9.20;67.67
52249;BME280;38541;48.130;8.378;2023-05-19T03:40:33;93025.84;;;9.27;67.89
52249;BME280;38541;48.130;8.378;2023-05-19T03:43:04;93029.03;;;9.29;67.70
52249;BME280;38541;48.130;8.378;2023-05-19T03:45:35;93031.59;;;9.24;67.29
52249;BME280;38541;48.130;8.378;2023-05-19T03:48:16;93026.91;;;9.26;67.26
52249;BME280;38541;48.130;8.378;2023-05-19T03:51:04;93027.97;;;9.30;67.51
52249;BME280;38541;48.130;8.378;2023-05-19T03:53:31;93030.56;;;9.25;66.99
52249;BME280;38541;48.130;8.378;2023-05-19T03:55:58;93032.69;;;9.28;67.62
52249;BME280;38541;48.130;8.378;2023-05-19T03:58:25;93033.53;;;9.34;67.55
52249;BME280;38541;48.130;8.378;2023-05-19T04:00:52;93040.09;;;9.36;67.72
52249;BME280;38541;48.130;8.378;2023-05-19T04:03:18;93036.19;;;9.39;67.94
52249;BME280;38541;48.130;8.378;2023-05-19T04:05:45;93043.28;;;9.38;67.03
52249;BME280;38541;48.130;8.378;2023-05-19T04:08:13;93039.66;;;9.45;67.02
52249;BME280;38541;48.130;8.378;2023-05-19T04:10:40;93042.28;;;9.45;66.99
52249;BME280;38541;48.130;8.378;2023-05-19T04:13:06;93043.22;;;9.33;67.05
52249;BME280;38541;48.130;8.378;2023-05-19T04:15:33;93038.03;;;9.38;67.78
52249;BME280;38541;48.130;8.378;2023-05-19T04:17:59;93034.13;;;9.41;67.47
52249;BME280;38541;48.130;8.378;2023-05-19T04:20:26;93039.75;;;9.27;66.89
52249;BME280;38541;48.130;8.378;2023-05-19T04:22:52;93041.13;;;9.35;67.29
52249;BME280;38541;48.130;8.378;2023-05-19T04:25:19;93036.75;;;9.41;67.62
52249;BME280;38541;48.130;8.378;2023-05-19T04:27:45;93041.78;;;9.48;67.20
52249;BME280;38541;48.130;8.378;2023-05-19T04:30:14;93037.00;;;9.39;67.20
52249;BME280;38541;48.130;8.378;2023-05-19T04:32:47;93039.06;;;9.37;66.86
52249;BME280;38541;48.130;8.378;2023-05-19T04:35:17;93041.22;;;9.40;67.08
52249;BME280;38541;48.130;8.378;2023-05-19T04:37:45;93030.22;;;9.44;67.03
52249;BME280;38541;48.130;8.378;2023-05-19T04:40:13;93032.88;;;9.49;66.97
52249;BME280;38541;48.130;8.378;2023-05-19T04:42:40;93030.50;;;9.47;66.92
52249;BME280;38541;48.130;8.378;2023-05-19T04:45:09;93036.06;;;9.51;66.81
52249;BME280;38541;48.130;8.378;2023-05-19T04:47:40;93042.94;;;9.57;66.72
52249;BME280;38541;48.130;8.378;2023-05-19T04:50:08;93039.03;;;9.60;67.22
52249;BME280;38541;48.130;8.378;2023-05-19T04:52:36;93035.81;;;9.52;66.71
52249;BME280;38541;48.130;8.378;2023-05-19T04:55:04;93045.81;;;9.55;66.68
52249;BME280;38541;48.130;8.378;2023-05-19T04:57:31;93043.25;;;9.66;66.35
52249;BME280;38541;48.130;8.378;2023-05-19T04:59:58;93042.50;;;9.65;66.48
52249;BME280;38541;48.130;8.378;2023-05-19T05:02:35;93037.75;;;9.62;66.18
52249;BME280;38541;48.130;8.378;2023-05-19T05:05:02;93044.47;;;9.53;66.59
52249;BME280;38541;48.130;8.378;2023-05-19T05:07:30;93041.41;;;9.61;66.56
52249;BME280;38541;48.130;8.378;2023-05-19T05:09:58;93034.56;;;9.60;66.61
52249;BME280;38541;48.130;8.378;2023-05-19T05:12:25;93040.91;;;9.64;66.85
52249;BME280;38541;48.130;8.378;2023-05-19T05:14:52;93040.41;;;9.67;66.27
52249;BME280;38541;48.130;8.378;2023-05-19T05:17:19;93040.72;;;9.71;66.14
52249;BME280;38541;48.130;8.378;2023-05-19T05:19:46;93040.50;;;9.78;65.53
52249;BME280;38541;48.130;8.378;2023-05-19T05:22:14;93032.38;;;9.79;65.65
52249;BME280;38541;48.130;8.378;2023-05-19T05:24:40;93036.63;;;9.85;66.05
52249;BME280;38541;48.130;8.378;2023-05-19T05:27:07;93047.13;;;9.85;66.00
52249;BME280;38541;48.130;8.378;2023-05-19T05:29:35;93036.88;;;9.84;65.41
52249;BME280;38541;48.130;8.378;2023-05-19T05:32:04;93031.09;;;9.82;65.07
52249;BME280;38541;48.130;8.378;2023-05-19T05:34:31;93038.50;;;9.90;65.56
52249;BME280;38541;48.130;8.378;2023-05-19T05:36:58;93031.16;;;9.92;65.49
52249;BME280;38541;48.130;8.378;2023-05-19T05:39:25;93035.94;;;9.95;65.65
52249;BME280;38541;48.130;8.378;2023-05-19T05:41:53;93027.06;;;10.07;65.63
52249;BME280;38541;48.130;8.378;2023-05-19T05:44:21;93030.78;;;10.11;65.81
52249;BME280;38541;48.130;8.378;2023-05-19T05:46:48;93034.78;;;10.19;65.38
52249;BME280;38541;48.130;8.378;2023-05-19T05:49:16;93040.31;;;10.22;65.59
52249;BME280;38541;48.130;8.378;2023-05-19T05:51:44;93035.59;;;10.24;65.59
52249;BME280;38541;48.130;8.378;2023-05-19T05:54:31;93044.03;;;10.26;64.79
52249;BME280;38541;48.130;8.378;2023-05-19T05:56:58;93030.44;;;10.35;64.72
52249;BME280;38541;48.130;8.378;2023-05-19T05:59:24;93031.84;;;10.43;64.22
52249;BME280;38541;48.130;8.378;2023-05-19T06:01:51;93031.59;;;10.49;65.39
52249;BME280;38541;48.130;8.378;2023-05-19T06:04:18;93031.28;;;10.40;63.45
52249;BME280;38541;48.130;8.378;2023-05-19T06:06:46;93034.78;;;10.19;64.18
52249;BME280;38541;48.130;8.378;2023-05-19T06:09:18;93034.56;;;10.25;64.92
52249;BME280;38541;48.130;8.378;2023-05-19T06:11:44;93032.84;;;10.41;64.31
52249;BME280;38541;48.130;8.378;2023-05-19T06:14:11;93030.81;;;10.49;64.36
52249;BME280;38541;48.130;8.378;2023-05-19T06:16:52;93025.34;;;10.61;64.57
52249;BME280;38541;48.130;8.378;2023-05-19T06:19:20;93023.28;;;10.68;63.81
52249;BME280;38541;48.130;8.378;2023-05-19T06:21:46;93025.88;;;10.58;62.61
52249;BME280;38541;48.130;8.378;2023-05-19T06:24:13;93020.84;;;10.51;63.81
52249;BME280;38541;48.130;8.378;2023-05-19T06:26:40;93026.94;;;10.62;64.07
52249;BME280;38541;48.130;8.378;2023-05-19T06:29:07;93027.44;;;10.59;63.06
52249;BME280;38541;48.130;8.378;2023-05-19T06:31:33;93024.38;;;10.72;63.57
52249;BME280;38541;48.130;8.378;2023-05-19T06:34:09;93024.97;;;10.90;63.26
52249;BME280;38541;48.130;8.378;2023-05-19T06:36:38;93025.53;;;11.02;62.74
52249;BME280;38541;48.130;8.378;2023-05-19T06:39:06;93021.31;;;11.01;63.08
52249;BME280;38541;48.130;8.378;2023-05-19T06:41:34;93021.63;;;11.05;62.11
52249;BME280;38541;48.130;8.378;2023-05-19T06:44:00;93032.13;;;11.05;62.73
52249;BME280;38541;48.130;8.378;2023-05-19T06:46:30;93027.63;;;11.00;62.36
52249;BME280;38541;48.130;8.378;2023-05-19T06:48:57;93034.25;;;11.08;62.79
52249;BME280;38541;48.130;8.378;2023-05-19T06:51:26;93027.38;;;11.02;63.00
52249;BME280;38541;48.130;8.378;2023-05-19T06:53:54;93023.19;;;11.11;62.59
52249;BME280;38541;48.130;8.378;2023-05-19T06:56:22;93032.28;;;10.82;61.55
52249;BME280;38541;48.130;8.378;2023-05-19T06:58:49;93033.41;;;10.92;61.97
52249;BME280;38541;48.130;8.378;2023-05-19T07:01:19;93034.47;;;11.01;62.48
52249;BME280;38541;48.130;8.378;2023-05-19T07:03:51;93027.03;;;10.77;62.48
52249;BME280;38541;48.130;8.378;2023-05-19T07:06:19;93027.47;;;10.69;62.84
52249;BME280;38541;48.130;8.378;2023-05-19T07:08:46;93031.00;;;10.85;63.00
52249;BME280;38541;48.130;8.378;2023-05-19T07:11:12;93033.13;;;10.98;61.83
52249;BME280;38541;48.130;8.378;2023-05-19T07:13:40;93030.78;;;11.02;62.15
52249;BME280;38541;48.130;8.378;2023-05-19T07:16:07;93028.69;;;11.04;62.17
52249;BME280;38541;48.130;8.378;2023-05-19T07:18:34;93029.28;;;11.11;62.09
52249;BME280;38541;48.130;8.378;2023-05-19T07:21:01;93027.47;;;11.22;62.38
52249;BME280;38541;48.130;8.378;2023-05-19T07:23:27;93028.75;;;11.15;61.86
52249;BME280;38541;48.130;8.378;2023-05-19T07:25:54;93036.91;;;11.18;61.99
52249;BME280;38541;48.130;8.378;2023-05-19T07:28:21;93032.47;;;11.29;61.64
52249;BME280;38541;48.130;8.378;2023-05-19T07:30:48;93034.06;;;11.40;61.87
52249;BME280;38541;48.130;8.378;2023-05-19T07:33:15;93038.81;;;11.44;61.27
52249;BME280;38541;48.130;8.378;2023-05-19T07:35:41;93036.47;;;11.52;60.94
52249;BME280;38541;48.130;8.378;2023-05-19T07:38:09;93029.28;;;11.27;61.80
52249;BME280;38541;48.130;8.378;2023-05-19T07:40:36;93035.94;;;11.50;62.08
52249;BME280;38541;48.130;8.378;2023-05-19T07:43:02;93036.69;;;11.40;61.17
52249;BME280;38541;48.130;8.378;2023-05-19T07:45:29;93031.97;;;11.37;61.28
52249;BME280;38541;48.130;8.378;2023-05-19T07:47:55;93032.00;;;11.58;61.80
52249;BME280;38541;48.130;8.378;2023-05-19T07:50:22;93025.09;;;11.26;62.16
52249;BME280;38541;48.130;8.378;2023-05-19T07:52:49;93014.63;;;11.47;61.96
52249;BME280;38541;48.130;8.378;2023-05-19T07:55:15;93014.63;;;11.47;61.10
52249;BME280;38541;48.130;8.378;2023-05-19T07:57:43;93017.75;;;11.38;61.22
52249;BME280;38541;48.130;8.378;2023-05-19T08:00:09;93014.91;;;11.61;61.16
52249;BME280;38541;48.130;8.378;2023-05-19T08:02:37;93005.44;;;11.85;60.82
52249;BME280;38541;48.130;8.378;2023-05-19T08:05:04;93003.91;;;12.05;60.85
52249;BME280;38541;48.130;8.378;2023-05-19T08:07:31;92997.84;;;12.05;59.95
52249;BME280;38541;48.130;8.378;2023-05-19T08:09:58;93010.47;;;12.34;60.14
52249;BME280;38541;48.130;8.378;2023-05-19T08:12:24;93006.25;;;12.27;60.15
52249;BME280;38541;48.130;8.378;2023-05-19T08:14:51;93004.91;;;12.56;59.52
52249;BME280;38541;48.130;8.378;2023-05-19T08:17:17;92998.00;;;12.65;58.59
52249;BME280;38541;48.130;8.378;2023-05-19T08:19:44;93005.88;;;12.81;58.50
52249;BME280;38541;48.130;8.378;2023-05-19T08:22:11;93012.22;;;12.69;57.42
52249;BME280;38541;48.130;8.378;2023-05-19T08:24:37;92993.25;;;12.67;57.30
52249;BME280;38541;48.130;8.378;2023-05-19T08:27:04;93000.34;;;12.72;57.73
52249;BME280;38541;48.130;8.378;2023-05-19T08:29:32;92990.31;;;12.84;57.74
52249;BME280;38541;48.130;8.378;2023-05-19T08:31:58;92995.09;;;12.72;56.54
52249;BME280;38541;48.130;8.378;2023-05-19T08:34:25;92985.56;;;12.76;58.07
52249;BME280;38541;48.130;8.378;2023-05-19T08:36:52;92987.69;;;12.74;57.12
52249;BME280;38541;48.130;8.378;2023-05-19T08:39:18;92988.25;;;12.71;57.06
52249;BME280;38541;48.130;8.378;2023-05-19T08:41:49;92990.34;;;12.79;58.96
52249;BME280;38541;48.130;8.378;2023-05-19T08:44:15;92981.78;;;12.98;57.54
52249;BME280;38541;48.130;8.378;2023-05-19T08:46:46;92986.56;;;13.01;58.04
52249;BME280;38541;48.130;8.378;2023-05-19T08:49:13;92982.78;;;13.12;56.46
52249;BME280;38541;48.130;8.378;2023-05-19T08:51:49;92994.72;;;12.99;56.62
52249;BME280;38541;48.130;8.378;2023-05-19T08:54:17;92983.81;;;13.17;56.88
52249;BME280;38541;48.130;8.378;2023-05-19T08:56:45;92987.44;;;13.31;56.77
52249;BME280;38541;48.130;8.378;2023-05-19T08:59:12;92981.59;;;13.45;55.77
52249;BME280;38541;48.130;8.378;2023-05-19T09:01:43;92994.06;;;13.79;55.68
52249;BME280;38541;48.130;8.378;2023-05-19T09:04:11;92991.88;;;13.86;54.94
52249;BME280;38541;48.130;8.378;2023-05-19T09:06:38;92987.09;;;13.88;53.34
52249;BME280;38541;48.130;8.378;2023-05-19T09:09:10;92990.34;;;13.80;53.16
52249;BME280;38541;48.130;8.378;2023-05-19T09:11:36;92987.91;;;13.89;54.43
52249;BME280;38541;48.130;8.378;2023-05-19T09:14:04;92983.09;;;14.25;53.85
52249;BME280;38541;48.130;8.378;2023-05-19T09:16:31;92974.31;;;14.60;52.58
52249;BME280;38541;48.130;8.378;2023-05-19T09:18:59;92980.72;;;14.83;53.10
52249;BME280;38541;48.130;8.378;2023-05-19T09:21:27;92979.72;;;14.98;51.37
52249;BME280;38541;48.130;8.378;2023-05-19T09:24:02;92983.66;;;14.52;52.54
52249;BME280;38541;48.130;8.378;2023-05-19T09:29:14;92984.84;;;14.06;53.58
52249;BME280;38541;48.130;8.378;2023-05-19T09:34:14;92979.69;;;14.25;52.55
52249;BME280;38541;48.130;8.378;2023-05-19T09:36:41;92981.28;;;14.50;53.66
52249;BME280;38541;48.130;8.378;2023-05-19T09:39:18;92992.06;;;14.83;53.14
52249;BME280;38541;48.130;8.378;2023-05-19T09:41:45;92976.84;;;14.70;51.71
52249;BME280;38541;48.130;8.378;2023-05-19T09:44:22;92984.47;;;14.47;52.87
52249;BME280;38541;48.130;8.378;2023-05-19T09:46:50;92980.50;;;14.50;51.36
52249;BME280;38541;48.130;8.378;2023-05-19T09:49:21;92992.91;;;14.20;52.37
52249;BME280;38541;48.130;8.378;2023-05-19T09:51:55;92991.22;;;14.05;53.86
52249;BME280;38541;48.130;8.378;2023-05-19T09:54:23;92987.28;;;14.32;53.93
52249;BME280;38541;48.130;8.378;2023-05-19T09:56:56;92997.94;;;14.21;52.59
52249;BME280;38541;48.130;8.378;2023-05-19T09:59:24;93000.44;;;14.37;52.94
52249;BME280;38541;48.130;8.378;2023-05-19T10:01:56;92994.78;;;14.19;53.42
52249;BME280;38541;48.130;8.378;2023-05-19T10:04:25;92986.72;;;14.35;52.75
52249;BME280;38541;48.130;8.378;2023-05-19T10:06:56;92993.84;;;14.34;53.51
52249;BME280;38541;48.130;8.378;2023-05-19T10:09:26;92994.16;;;14.33;52.58
52249;BME280;38541;48.130;8.378;2023-05-19T10:11:55;92992.72;;;14.70;52.44
52249;BME280;38541;48.130;8.378;2023-05-19T10:14:26;92996.81;;;14.57;52.76
52249;BME280;38541;48.130;8.378;2023-05-19T10:16:55;92991.91;;;14.45;51.93
52249;BME280;38541;48.130;8.378;2023-05-19T10:19:23;92983.75;;;14.41;52.83
52249;BME280;38541;48.130;8.378;2023-05-19T10:21:51;92976.34;;;14.44;51.53
52249;BME280;38541;48.130;8.378;2023-05-19T10:24:18;92988.75;;;14.73;53.62
52249;BME280;38541;48.130;8.378;2023-05-19T10:26:57;92981.66;;;14.92;51.68
52249;BME280;38541;48.130;8.378;2023-05-19T10:29:27;92989.50;;;15.22;52.04
52249;BME280;38541;48.130;8.378;2023-05-19T10:31:58;92973.78;;;15.50;50.14
52249;BME280;38541;48.130;8.378;2023-05-19T10:37:33;92978.28;;;15.30;51.86
52249;BME280;38541;48.130;8.378;2023-05-19T10:40:10;92986.72;;;15.51;51.63
52249;BME280;38541;48.130;8.378;2023-05-19T10:45:18;92986.84;;;15.60;49.86
52249;BME280;38541;48.130;8.378;2023-05-19T10:47:46;92986.81;;;15.65;50.56
52249;BME280;38541;48.130;8.378;2023-05-19T10:50:12;92988.22;;;15.38;50.40
52249;BME280;38541;48.130;8.378;2023-05-19T10:52:39;92987.09;;;15.45;51.54
52249;BME280;38541;48.130;8.378;2023-05-19T10:55:07;92983.50;;;15.35;49.50
52249;BME280;38541;48.130;8.378;2023-05-19T10:57:34;92990.19;;;15.08;51.16
52249;BME280;38541;48.130;8.378;2023-05-19T11:00:03;92989.06;;;14.90;50.75
52249;BME280;38541;48.130;8.378;2023-05-19T11:02:37;92993.13;;;14.82;51.23
52249;BME280;38541;48.130;8.378;2023-05-19T11:05:13;92996.22;;;14.65;51.39
52249;BME280;38541;48.130;8.378;2023-05-19T11:07:41;92995.56;;;14.49;52.38
52249;BME280;38541;48.130;8.378;2023-05-19T11:10:09;92995.25;;;14.26;52.84
52249;BME280;38541;48.130;8.378;2023-05-19T11:12:40;92995.81;;;14.23;52.66
52249;BME280;38541;48.130;8.378;2023-05-19T11:15:13;92992.03;;;14.30;53.08
52249;BME280;38541;48.130;8.378;2023-05-19T11:17:40;92988.59;;;14.59;53.07
52249;BME280;38541;48.130;8.378;2023-05-19T11:20:08;92997.69;;;15.01;51.84
52249;BME280;38541;48.130;8.378;2023-05-19T11:23:00;92996.19;;;14.95;52.05
52249;BME280;38541;48.130;8.378;2023-05-19T11:28:09;92995.00;;;15.25;51.56
52249;BME280;38541;48.130;8.378;2023-05-19T11:30:35;92984.31;;;15.36;52.30
52249;BME280;38541;48.130;8.378;2023-05-19T11:33:03;92990.81;;;15.00;50.95
52249;BME280;38541;48.130;8.378;2023-05-19T11:35:32;92988.22;;;15.38;50.41
52249;BME280;38541;48.130;8.378;2023-05-19T11:38:01;92993.09;;;15.69;50.92
52249;BME280;38541;48.130;8.378;2023-05-19T11:40:29;92986.88;;;15.41;49.63
52249;BME280;38541;48.130;8.378;2023-05-19T11:42:55;92989.06;;;15.15;49.72
52249;BME280;38541;48.130;8.378;2023-05-19T11:45:25;92983.06;;;15.28;50.29
52249;BME280;38541;48.130;8.378;2023-05-19T11:47:56;92988.00;;;15.16;51.28
52249;BME280;38541;48.130;8.378;2023-05-19T11:50:29;92995.00;;;15.25;50.42
52249;BME280;38541;48.130;8.378;2023-05-19T11:52:58;92988.41;;;14.79;51.38
52249;BME280;38541;48.130;8.378;2023-05-19T11:55:25;92989.91;;;15.10;51.84
52249;BME280;38541;48.130;8.378;2023-05-19T11:58:02;92971.75;;;15.41;52.24
52249;BME280;38541;48.130;8.378;2023-05-19T12:00:39;92982.91;;;15.38;50.57
52249;BME280;38541;48.130;8.378;2023-05-19T12:03:07;92978.31;;;15.25;50.28
52249;BME280;38541;48.130;8.378;2023-05-19T12:05:42;92975.59;;;14.92;51.63
52249;BME280;38541;48.130;8.378;2023-05-19T12:08:10;92968.16;;;14.94;52.54
52249;BME280;38541;48.130;8.378;2023-05-19T12:10:38;92975.75;;;14.76;52.91
52249;BME280;38541;48.130;8.378;2023-05-19T12:13:05;92978.41;;;14.76;53.00
52249;BME280;38541;48.130;8.378;2023-05-19T12:15:35;92976.94;;;14.35;53.84
52249;BME280;38541;48.130;8.378;2023-05-19T12:18:02;92978.66;;;14.50;53.69
52249;BME280;38541;48.130;8.378;2023-05-19T12:20:29;92987.47;;;14.40;53.95
52249;BME280;38541;48.130;8.378;2023-05-19T12:22:59;92983.22;;;14.10;53.98
52249;BME280;38541;48.130;8.378;2023-05-19T12:25:27;92980.38;;;14.06;55.12
52249;BME280;38541;48.130;8.378;2023-05-19T12:27:58;92986.25;;;14.27;55.16
52249;BME280;38541;48.130;8.378;2023-05-19T12:30:26;92991.41;;;14.43;55.31
52249;BME280;38541;48.130;8.378;2023-05-19T12:32:55;92996.34;;;14.50;54.90
52249;BME280;38541;48.130;8.378;2023-05-19T12:35:26;92990.00;;;14.51;54.24
52249;BME280;38541;48.130;8.378;2023-05-19T12:37:53;92995.91;;;14.43;54.91
52249;BME280;38541;48.130;8.378;2023-05-19T12:40:20;92991.72;;;14.36;54.67
52249;BME280;38541;48.130;8.378;2023-05-19T12:42:48;92981.75;;;13.98;54.96
52249;BME280;38541;48.130;8.378;2023-05-19T12:45:19;92991.63;;;13.88;55.41
52249;BME280;38541;48.130;8.378;2023-05-19T12:47:47;92999.13;;;14.05;55.93
52249;BME280;38541;48.130;8.378;2023-05-19T12:50:14;92998.44;;;14.23;54.63
52249;BME280;38541;48.130;8.378;2023-05-19T12:52:48;93001.88;;;13.94;54.50
52249;BME280;38541;48.130;8.378;2023-05-19T12:55:18;93000.09;;;13.79;56.22
52249;BME280;38541;48.130;8.378;2023-05-19T12:57:50;93009.91;;;13.79;56.18
52249;BME280;38541;48.130;8.378;2023-05-19T13:00:21;92994.81;;;13.79;55.61
52249;BME280;38541;48.130;8.378;2023-05-19T13:03:04;92993.06;;;13.69;56.02
52249;BME280;38541;48.130;8.378;2023-05-19T13:05:32;92993.22;;;13.44;56.43
52249;BME280;38541;48.130;8.378;2023-05-19T13:10:29;92986.88;;;13.39;57.81
52249;BME280;38541;48.130;8.378;2023-05-19T13:12:58;92983.75;;;13.37;57.00
52249;BME280;38541;48.130;8.378;2023-05-19T13:15:27;92983.19;;;13.40;57.66
52249;BME280;38541;48.130;8.378;2023-05-19T13:18:01;92979.38;;;13.97;57.03
52249;BME280;38541;48.130;8.378;2023-05-19T13:20:29;92973.34;;;14.21;55.64
52249;BME280;38541;48.130;8.378;2023-05-19T13:22:56;92984.66;;;14.26;55.60
52249;BME280;38541;48.130;8.378;2023-05-19T13:25:22;92977.38;;;14.18;54.98
52249;BME280;38541;48.130;8.378;2023-05-19T13:27:49;92985.84;;;14.15;55.03
52249;BME280;38541;48.130;8.378;2023-05-19T13:30:17;92978.81;;;13.65;56.14
52249;BME280;38541;48.130;8.378;2023-05-19T13:32:44;92982.19;;;13.76;56.49
52249;BME280;38541;48.130;8.378;2023-05-19T13:35:13;92984.31;;;13.74;55.68
52249;BME280;38541;48.130;8.378;2023-05-19T13:37:43;92978.75;;;13.76;55.42